CYEN

Estevan Airport

Estevan, Saskatchewan, Canada
METAR CYEN 210900Z 18007KT 15SM FEW220 05/02 A3014 RMK CI1 SLP220
Observed Flight Rules
Apr-21 @ 09:00 UTC (51 minutes ago) Visual Flight Rules
Wind Visibility Clouds
180° at 7 knots 15 miles
  • Few at 22,000' AGL
Temperatures Readings
Current 5°C / 41°F
Dewpoint 2°C / 36°F
Humidity 81%
Altimeter 30.14" Hg
Pressure 1022 hPa
Elevation 581
METAR CYEN 210900Z 18007KT 15SM FEW220 05/02 A3014 RMK CI1 SLP220
Observed Flight Rules
Apr-21 @ 09:00 UTC
(51 minutes ago)
VFR
Wind Visibility
180° at 7 knots 15 miles
Clouds
  • Few at 22,000' AGL
Temperature Dewpoint
5°C / 41°F 2°C / 36°F
Humidity Altimeter Pressure
81% 30.14" Hg 1022 hPa